sensor_id;sensor_type;location;lat;lon;timestamp;pressure;altitude;pressure_sealevel;temperature;humidity
16481;BME280;44634;54.110;12.138;2023-04-07T00:01:13;102047.22;;;6.57;100.00
16481;BME280;44634;54.110;12.138;2023-04-07T00:03:41;102045.25;;;6.11;100.00
16481;BME280;44634;54.110;12.138;2023-04-07T00:06:09;102051.50;;;5.89;100.00
16481;BME280;44634;54.110;12.138;2023-04-07T00:08:37;102045.00;;;6.15;100.00
16481;BME280;44634;54.110;12.138;2023-04-07T00:11:05;102049.09;;;6.38;100.00
16481;BME280;44634;54.110;12.138;2023-04-07T00:13:34;102045.00;;;5.98;100.00
16481;BME280;44634;54.110;12.138;2023-04-07T00:16:01;102046.97;;;5.93;100.00
16481;BME280;44634;54.110;12.138;2023-04-07T00:18:31;102043.53;;;5.74;100.00
16481;BME280;44634;54.110;12.138;2023-04-07T00:20:58;102042.84;;;5.87;100.00
16481;BME280;44634;54.110;12.138;2023-04-07T00:23:26;102047.69;;;5.78;100.00
16481;BME280;44634;54.110;12.138;2023-04-07T00:25:54;102046.53;;;6.19;100.00
16481;BME280;44634;54.110;12.138;2023-04-07T00:28:22;102053.44;;;5.86;100.00
16481;BME280;44634;54.110;12.138;2023-04-07T00:30:50;102045.44;;;6.06;100.00
16481;BME280;44634;54.110;12.138;2023-04-07T00:33:17;102037.34;;;6.28;100.00
16481;BME280;44634;54.110;12.138;2023-04-07T00:35:47;102054.19;;;6.24;100.00
16481;BME280;44634;54.110;12.138;2023-04-07T00:38:15;102045.78;;;6.52;100.00
16481;BME280;44634;54.110;12.138;2023-04-07T00:40:42;102063.09;;;6.39;100.00
16481;BME280;44634;54.110;12.138;2023-04-07T00:43:10;102051.19;;;6.14;100.00
16481;BME280;44634;54.110;12.138;2023-04-07T00:45:38;102048.03;;;5.89;100.00
16481;BME280;44634;54.110;12.138;2023-04-07T00:48:06;102043.47;;;5.94;100.00
16481;BME280;44634;54.110;12.138;2023-04-07T00:50:34;102043.38;;;5.77;100.00
16481;BME280;44634;54.110;12.138;2023-04-07T00:53:04;102045.25;;;6.11;100.00
16481;BME280;44634;54.110;12.138;2023-04-07T00:55:32;102044.72;;;5.85;100.00
16481;BME280;44634;54.110;12.138;2023-04-07T00:57:59;102039.38;;;6.23;100.00
16481;BME280;44634;54.110;12.138;2023-04-07T01:00:27;102046.53;;;6.02;100.00
16481;BME280;44634;54.110;12.138;2023-04-07T01:02:58;102041.19;;;6.21;100.00
16481;BME280;44634;54.110;12.138;2023-04-07T01:05:37;102035.50;;;5.95;100.00
16481;BME280;44634;54.110;12.138;2023-04-07T01:08:11;102030.94;;;6.34;100.00
16481;BME280;44634;54.110;12.138;2023-04-07T01:10:45;102032.28;;;6.08;100.00
16481;BME280;44634;54.110;12.138;2023-04-07T01:13:22;102028.78;;;6.42;100.00
16481;BME280;44634;54.110;12.138;2023-04-07T01:15:53;102036.19;;;6.16;100.00
16481;BME280;44634;54.110;12.138;2023-04-07T01:18:25;102025.59;;;6.52;100.00
16481;BME280;44634;54.110;12.138;2023-04-07T01:20:56;102036.19;;;6.16;100.00
16481;BME280;44634;54.110;12.138;2023-04-07T01:23:38;102039.59;;;6.18;100.00
16481;BME280;44634;54.110;12.138;2023-04-07T01:26:17;102031.03;;;6.15;100.00
16481;BME280;44634;54.110;12.138;2023-04-07T01:29:03;102020.34;;;6.18;100.00
16481;BME280;44634;54.110;12.138;2023-04-07T01:31:50;102023.06;;;6.16;100.00
16481;BME280;44634;54.110;12.138;2023-04-07T01:34:18;102020.75;;;6.28;100.00
16481;BME280;44634;54.110;12.138;2023-04-07T01:36:47;102026.09;;;6.09;100.00
16481;BME280;44634;54.110;12.138;2023-04-07T01:39:16;102017.38;;;5.72;100.00
16481;BME280;44634;54.110;12.138;2023-04-07T01:41:45;102015.78;;;5.51;100.00
16481;BME280;44634;54.110;12.138;2023-04-07T01:44:13;102007.19;;;5.66;100.00
16481;BME280;44634;54.110;12.138;2023-04-07T01:46:41;102014.66;;;6.10;100.00
16481;BME280;44634;54.110;12.138;2023-04-07T01:49:11;102020.41;;;5.82;100.00
16481;BME280;44634;54.110;12.138;2023-04-07T01:51:40;102009.13;;;5.44;100.00
16481;BME280;44634;54.110;12.138;2023-04-07T01:54:08;102000.03;;;6.04;100.00
16481;BME280;44634;54.110;12.138;2023-04-07T01:56:37;102009.06;;;5.62;100.00
16481;BME280;44634;54.110;12.138;2023-04-07T01:59:04;102012.13;;;5.36;100.00
16481;BME280;44634;54.110;12.138;2023-04-07T02:01:32;102006.47;;;5.07;100.00
16481;BME280;44634;54.110;12.138;2023-04-07T02:04:06;102003.63;;;5.67;100.00
16481;BME280;44634;54.110;12.138;2023-04-07T02:06:43;102004.53;;;5.30;100.00
16481;BME280;44634;54.110;12.138;2023-04-07T02:09:15;102003.75;;;5.64;100.00
16481;BME280;44634;54.110;12.138;2023-04-07T02:11:43;102009.16;;;5.61;100.00
16481;BME280;44634;54.110;12.138;2023-04-07T02:14:12;102013.31;;;5.29;100.00
16481;BME280;44634;54.110;12.138;2023-04-07T02:16:41;102006.06;;;6.06;100.00
16481;BME280;44634;54.110;12.138;2023-04-07T02:19:12;102007.41;;;5.97;100.00
16481;BME280;44634;54.110;12.138;2023-04-07T02:21:42;102012.84;;;5.57;100.00
16481;BME280;44634;54.110;12.138;2023-04-07T02:24:11;102006.59;;;5.59;100.00
16481;BME280;44634;54.110;12.138;2023-04-07T02:26:39;102013.09;;;6.06;100.00
16481;BME280;44634;54.110;12.138;2023-04-07T02:29:07;102014.34;;;5.99;100.00
16481;BME280;44634;54.110;12.138;2023-04-07T02:31:35;102013.59;;;5.42;100.00
16481;BME280;44634;54.110;12.138;2023-04-07T02:34:02;102012.38;;;5.49;100.00
16481;BME280;44634;54.110;12.138;2023-04-07T02:36:30;101999.94;;;5.88;100.00
16481;BME280;44634;54.110;12.138;2023-04-07T02:38:59;102012.78;;;5.58;100.00
16481;BME280;44634;54.110;12.138;2023-04-07T02:41:27;102013.75;;;5.38;100.00
16481;BME280;44634;54.110;12.138;2023-04-07T02:43:55;102009.19;;;5.78;100.00
16481;BME280;44634;54.110;12.138;2023-04-07T02:46:23;102014.56;;;5.58;100.00
16481;BME280;44634;54.110;12.138;2023-04-07T02:48:51;102001.47;;;5.75;100.00
16481;BME280;44634;54.110;12.138;2023-04-07T02:51:19;102008.84;;;5.50;100.00
16481;BME280;44634;54.110;12.138;2023-04-07T02:53:47;102008.94;;;5.65;100.00
16481;BME280;44634;54.110;12.138;2023-04-07T02:56:16;102008.56;;;5.73;100.00
16481;BME280;44634;54.110;12.138;2023-04-07T02:58:43;102004.59;;;6.01;100.00
16481;BME280;44634;54.110;12.138;2023-04-07T03:01:12;102004.06;;;5.58;100.00
16481;BME280;44634;54.110;12.138;2023-04-07T03:03:39;101995.94;;;5.81;100.00
16481;BME280;44634;54.110;12.138;2023-04-07T03:06:10;102003.16;;;5.95;100.00
16481;BME280;44634;54.110;12.138;2023-04-07T03:08:38;101999.66;;;5.58;100.00
16481;BME280;44634;54.110;12.138;2023-04-07T03:11:06;101989.78;;;5.63;100.00
16481;BME280;44634;54.110;12.138;2023-04-07T03:13:35;101998.84;;;5.75;100.00
16481;BME280;44634;54.110;12.138;2023-04-07T03:16:03;102003.28;;;5.56;100.00
16481;BME280;44634;54.110;12.138;2023-04-07T03:18:30;101994.84;;;5.68;100.00
16481;BME280;44634;54.110;12.138;2023-04-07T03:20:58;101998.84;;;5.75;100.00
16481;BME280;44634;54.110;12.138;2023-04-07T03:23:26;101993.56;;;5.94;100.00
16481;BME280;44634;54.110;12.138;2023-04-07T03:25:55;102005.03;;;5.38;100.00
16481;BME280;44634;54.110;12.138;2023-04-07T03:28:23;101994.97;;;5.65;100.00
16481;BME280;44634;54.110;12.138;2023-04-07T03:30:52;102000.78;;;5.72;100.00
16481;BME280;44634;54.110;12.138;2023-04-07T03:33:20;102006.66;;;5.41;100.00
16481;BME280;44634;54.110;12.138;2023-04-07T03:35:48;101997.72;;;5.62;100.00
16481;BME280;44634;54.110;12.138;2023-04-07T03:38:16;102003.34;;;5.37;100.00
16481;BME280;44634;54.110;12.138;2023-04-07T03:40:43;102004.72;;;5.80;100.00
16481;BME280;44634;54.110;12.138;2023-04-07T03:43:11;102003.19;;;5.40;100.00
16481;BME280;44634;54.110;12.138;2023-04-07T03:45:40;102002.97;;;5.62;100.00
16481;BME280;44634;54.110;12.138;2023-04-07T03:48:09;101998.50;;;5.64;100.00
16481;BME280;44634;54.110;12.138;2023-04-07T03:50:38;102004.00;;;5.77;100.00
16481;BME280;44634;54.110;12.138;2023-04-07T03:53:06;102015.66;;;5.71;100.00
16481;BME280;44634;54.110;12.138;2023-04-07T03:55:35;102012.53;;;5.46;100.00
16481;BME280;44634;54.110;12.138;2023-04-07T03:58:03;102010.47;;;5.33;100.00
16481;BME280;44634;54.110;12.138;2023-04-07T04:00:31;102005.16;;;5.54;100.00
16481;BME280;44634;54.110;12.138;2023-04-07T04:02:59;102020.22;;;5.49;100.00
16481;BME280;44634;54.110;12.138;2023-04-07T04:05:28;102000.28;;;5.63;100.00
16481;BME280;44634;54.110;12.138;2023-04-07T04:07:56;102014.88;;;5.33;100.00
16481;BME280;44634;54.110;12.138;2023-04-07T04:10:24;102013.59;;;4.85;100.00
16481;BME280;44634;54.110;12.138;2023-04-07T04:12:52;101998.81;;;5.03;100.00
16481;BME280;44634;54.110;12.138;2023-04-07T04:15:20;102005.53;;;5.08;100.00
16481;BME280;44634;54.110;12.138;2023-04-07T04:17:48;102004.38;;;5.33;100.00
16481;BME280;44634;54.110;12.138;2023-04-07T04:20:16;102009.75;;;5.49;100.00
16481;BME280;44634;54.110;12.138;2023-04-07T04:22:45;102013.88;;;5.17;100.00
16481;BME280;44634;54.110;12.138;2023-04-07T04:25:13;102019.75;;;5.03;100.00
16481;BME280;44634;54.110;12.138;2023-04-07T04:27:41;102011.41;;;5.68;100.00
16481;BME280;44634;54.110;12.138;2023-04-07T04:30:09;102024.75;;;5.64;100.00
16481;BME280;44634;54.110;12.138;2023-04-07T04:32:37;102023.44;;;5.55;100.00
16481;BME280;44634;54.110;12.138;2023-04-07T04:35:05;102028.63;;;5.38;100.00
16481;BME280;44634;54.110;12.138;2023-04-07T04:37:33;102021.41;;;5.24;100.00
16481;BME280;44634;54.110;12.138;2023-04-07T04:40:03;102015.94;;;5.29;100.00
16481;BME280;44634;54.110;12.138;2023-04-07T04:42:34;102006.59;;;5.23;100.00
16481;BME280;44634;54.110;12.138;2023-04-07T04:45:02;102006.69;;;5.22;100.00
16481;BME280;44634;54.110;12.138;2023-04-07T04:47:30;101990.09;;;5.57;100.00
16481;BME280;44634;54.110;12.138;2023-04-07T04:49:58;101984.56;;;5.08;100.00
16481;BME280;44634;54.110;12.138;2023-04-07T04:52:26;101972.03;;;5.15;100.00
16481;BME280;44634;54.110;12.138;2023-04-07T04:54:54;101957.59;;;5.43;100.00
16481;BME280;44634;54.110;12.138;2023-04-07T04:57:23;101960.13;;;5.44;100.00
16481;BME280;44634;54.110;12.138;2023-04-07T04:59:51;101972.03;;;5.15;100.00
16481;BME280;44634;54.110;12.138;2023-04-07T05:02:19;101960.66;;;5.33;100.00
16481;BME280;44634;54.110;12.138;2023-04-07T05:04:47;101954.38;;;5.72;100.00
16481;BME280;44634;54.110;12.138;2023-04-07T05:07:15;101956.22;;;5.35;100.00
16481;BME280;44634;54.110;12.138;2023-04-07T05:09:43;101955.28;;;5.36;100.00
16481;BME280;44634;54.110;12.138;2023-04-07T05:12:11;101931.16;;;5.82;100.00
16481;BME280;44634;54.110;12.138;2023-04-07T05:14:40;101940.81;;;5.81;100.00
16481;BME280;44634;54.110;12.138;2023-04-07T05:17:08;101944.75;;;5.73;100.00
16481;BME280;44634;54.110;12.138;2023-04-07T05:19:36;101937.03;;;5.87;100.00
16481;BME280;44634;54.110;12.138;2023-04-07T05:22:03;101942.50;;;6.17;100.00
16481;BME280;44634;54.110;12.138;2023-04-07T05:24:31;101961.78;;;5.64;100.00
16481;BME280;44634;54.110;12.138;2023-04-07T05:26:59;101951.50;;;5.95;100.00
16481;BME280;44634;54.110;12.138;2023-04-07T05:29:27;101959.44;;;6.11;100.00
16481;BME280;44634;54.110;12.138;2023-04-07T05:31:56;101954.63;;;6.19;100.00
16481;BME280;44634;54.110;12.138;2023-04-07T05:34:24;101951.56;;;5.94;100.00
16481;BME280;44634;54.110;12.138;2023-04-07T05:36:52;101952.78;;;6.04;100.00
16481;BME280;44634;54.110;12.138;2023-04-07T05:39:20;101951.00;;;5.87;100.00
16481;BME280;44634;54.110;12.138;2023-04-07T05:41:47;101940.66;;;6.19;100.00
16481;BME280;44634;54.110;12.138;2023-04-07T05:44:15;101958.88;;;5.87;100.00
16481;BME280;44634;54.110;12.138;2023-04-07T05:46:43;101948.69;;;5.81;100.00
16481;BME280;44634;54.110;12.138;2023-04-07T05:49:13;101958.00;;;5.70;100.00
16481;BME280;44634;54.110;12.138;2023-04-07T05:51:45;101956.88;;;5.92;100.00
16481;BME280;44634;54.110;12.138;2023-04-07T05:54:14;101960.63;;;5.87;100.00
16481;BME280;44634;54.110;12.138;2023-04-07T05:56:42;101947.44;;;5.88;100.00
16481;BME280;44634;54.110;12.138;2023-04-07T05:59:10;101955.47;;;5.85;100.00
16481;BME280;44634;54.110;12.138;2023-04-07T06:01:38;101951.63;;;5.92;100.00
16481;BME280;44634;54.110;12.138;2023-04-07T06:04:06;101959.28;;;6.14;100.00
16481;BME280;44634;54.110;12.138;2023-04-07T06:06:35;101963.50;;;5.82;100.00
16481;BME280;44634;54.110;12.138;2023-04-07T06:09:03;101957.97;;;6.23;100.00
16481;BME280;44634;54.110;12.138;2023-04-07T06:11:33;101982.28;;;6.26;100.00
16481;BME280;44634;54.110;12.138;2023-04-07T06:14:01;101987.44;;;6.28;100.00
16481;BME280;44634;54.110;12.138;2023-04-07T06:16:29;101979.41;;;6.31;100.00
16481;BME280;44634;54.110;12.138;2023-04-07T06:18:57;101994.16;;;6.51;100.00
16481;BME280;44634;54.110;12.138;2023-04-07T06:21:24;102001.28;;;6.98;100.00
16481;BME280;44634;54.110;12.138;2023-04-07T06:23:54;102007.84;;;6.73;100.00
16481;BME280;44634;54.110;12.138;2023-04-07T06:26:21;102012.34;;;6.71;100.00
16481;BME280;44634;54.110;12.138;2023-04-07T06:28:50;102005.34;;;7.03;100.00
16481;BME280;44634;54.110;12.138;2023-04-07T06:31:18;102005.69;;;6.97;100.00
16481;BME280;44634;54.110;12.138;2023-04-07T06:33:46;102005.59;;;7.30;100.00
16481;BME280;44634;54.110;12.138;2023-04-07T06:36:14;102013.31;;;7.33;100.00
16481;BME280;44634;54.110;12.138;2023-04-07T06:38:42;102024.59;;;7.35;100.00
16481;BME280;44634;54.110;12.138;2023-04-07T06:41:12;102031.41;;;7.55;100.00
16481;BME280;44634;54.110;12.138;2023-04-07T06:43:42;102028.34;;;7.00;100.00
16481;BME280;44634;54.110;12.138;2023-04-07T06:46:10;102008.72;;;7.21;100.00
16481;BME280;44634;54.110;12.138;2023-04-07T06:48:38;102004.84;;;7.28;100.00
16481;BME280;44634;54.110;12.138;2023-04-07T06:51:06;102015.38;;;7.28;100.00
16481;BME280;44634;54.110;12.138;2023-04-07T06:53:34;102010.66;;;8.11;100.00
16481;BME280;44634;54.110;12.138;2023-04-07T06:56:02;102024.41;;;7.86;100.00
16481;BME280;44634;54.110;12.138;2023-04-07T06:58:32;102043.38;;;7.61;100.00
16481;BME280;44634;54.110;12.138;2023-04-07T07:01:01;102033.13;;;7.40;100.00
16481;BME280;44634;54.110;12.138;2023-04-07T07:03:29;102038.03;;;7.31;100.00
16481;BME280;44634;54.110;12.138;2023-04-07T07:05:57;102025.44;;;7.36;100.00
16481;BME280;44634;54.110;12.138;2023-04-07T07:08:26;102031.41;;;7.55;100.00
16481;BME280;44634;54.110;12.138;2023-04-07T07:10:54;102021.97;;;7.67;100.00
16481;BME280;44634;54.110;12.138;2023-04-07T07:13:23;102045.81;;;7.64;100.00
16481;BME280;44634;54.110;12.138;2023-04-07T07:15:53;102051.06;;;8.10;100.00
16481;BME280;44634;54.110;12.138;2023-04-07T07:18:20;102049.03;;;8.15;100.00
16481;BME280;44634;54.110;12.138;2023-04-07T07:20:48;102069.88;;;8.63;100.00
16481;BME280;44634;54.110;12.138;2023-04-07T07:23:16;102065.84;;;7.82;100.00
16481;BME280;44634;54.110;12.138;2023-04-07T07:25:44;102068.59;;;8.11;100.00
16481;BME280;44634;54.110;12.138;2023-04-07T07:28:12;102072.31;;;7.76;100.00
16481;BME280;44634;54.110;12.138;2023-04-07T07:30:41;102064.03;;;7.98;100.00
16481;BME280;44634;54.110;12.138;2023-04-07T07:33:10;102073.16;;;8.53;100.00
16481;BME280;44634;54.110;12.138;2023-04-07T07:35:38;102085.94;;;9.03;100.00
16481;BME280;44634;54.110;12.138;2023-04-07T07:38:06;102093.75;;;8.46;100.00
16481;BME280;44634;54.110;12.138;2023-04-07T07:40:34;102091.16;;;8.30;100.00
16481;BME280;44634;54.110;12.138;2023-04-07T07:43:02;102083.81;;;8.65;100.00
16481;BME280;44634;54.110;12.138;2023-04-07T07:45:30;102088.09;;;8.22;100.00
16481;BME280;44634;54.110;12.138;2023-04-07T07:47:58;102093.19;;;9.00;100.00
16481;BME280;44634;54.110;12.138;2023-04-07T07:50:27;102105.34;;;8.44;100.00
16481;BME280;44634;54.110;12.138;2023-04-07T07:52:55;102100.41;;;9.24;100.00
16481;BME280;44634;54.110;12.138;2023-04-07T07:55:23;102118.44;;;9.04;100.00
16481;BME280;44634;54.110;12.138;2023-04-07T07:57:51;102125.53;;;8.59;100.00
16481;BME280;44634;54.110;12.138;2023-04-07T08:00:19;102121.72;;;8.93;100.00
16481;BME280;44634;54.110;12.138;2023-04-07T08:02:46;102127.47;;;9.42;100.00
16481;BME280;44634;54.110;12.138;2023-04-07T08:05:14;102134.56;;;9.69;100.00
16481;BME280;44634;54.110;12.138;2023-04-07T08:07:43;102132.38;;;9.90;100.00
16481;BME280;44634;54.110;12.138;2023-04-07T08:10:12;102130.69;;;9.89;100.00
16481;BME280;44634;54.110;12.138;2023-04-07T08:12:40;102142.56;;;9.26;100.00
16481;BME280;44634;54.110;12.138;2023-04-07T08:15:08;102147.47;;;9.88;100.00
16481;BME280;44634;54.110;12.138;2023-04-07T08:17:36;102152.19;;;9.82;100.00
16481;BME280;44634;54.110;12.138;2023-04-07T08:20:05;102142.75;;;9.93;100.00
16481;BME280;44634;54.110;12.138;2023-04-07T08:22:33;102143.94;;;10.01;100.00
16481;BME280;44634;54.110;12.138;2023-04-07T08:25:03;102147.28;;;9.91;100.00
16481;BME280;44634;54.110;12.138;2023-04-07T08:27:31;102149.34;;;10.27;100.00
16481;BME280;44634;54.110;12.138;2023-04-07T08:29:59;102153.38;;;10.05;100.00
16481;BME280;44634;54.110;12.138;2023-04-07T08:32:33;102154.88;;;10.36;100.00
16481;BME280;44634;54.110;12.138;2023-04-07T08:35:02;102157.19;;;10.28;100.00
16481;BME280;44634;54.110;12.138;2023-04-07T08:37:30;102156.25;;;10.94;100.00
16481;BME280;44634;54.110;12.138;2023-04-07T08:39:57;102160.47;;;10.71;100.00
16481;BME280;44634;54.110;12.138;2023-04-07T08:42:28;102145.06;;;11.16;100.00
16481;BME280;44634;54.110;12.138;2023-04-07T08:44:58;102145.88;;;10.79;100.00
16481;BME280;44634;54.110;12.138;2023-04-07T08:47:30;102151.97;;;10.00;100.00
16481;BME280;44634;54.110;12.138;2023-04-07T08:50:00;102149.63;;;9.95;100.00
16481;BME280;44634;54.110;12.138;2023-04-07T08:52:32;102153.00;;;9.97;100.00
16481;BME280;44634;54.110;12.138;2023-04-07T08:55:03;102157.22;;;10.14;100.00
16481;BME280;44634;54.110;12.138;2023-04-07T08:57:33;102158.50;;;9.94;100.00
16481;BME280;44634;54.110;12.138;2023-04-07T09:00:02;102160.78;;;10.27;100.00
16481;BME280;44634;54.110;12.138;2023-04-07T09:02:32;102166.91;;;10.67;100.00
16481;BME280;44634;54.110;12.138;2023-04-07T09:05:02;102163.03;;;10.19;100.00
16481;BME280;44634;54.110;12.138;2023-04-07T09:07:31;102160.47;;;10.59;100.00
16481;BME280;44634;54.110;12.138;2023-04-07T09:10:00;102158.69;;;10.72;100.00
16481;BME280;44634;54.110;12.138;2023-04-07T09:12:28;102164.34;;;10.26;100.00
16481;BME280;44634;54.110;12.138;2023-04-07T09:14:58;102157.13;;;11.20;100.00
16481;BME280;44634;54.110;12.138;2023-04-07T09:17:27;102170.84;;;9.94;100.00
16481;BME280;44634;54.110;12.138;2023-04-07T09:19:55;102168.22;;;10.35;100.00
16481;BME280;44634;54.110;12.138;2023-04-07T09:22:36;102166.41;;;10.75;100.00
16481;BME280;44634;54.110;12.138;2023-04-07T09:25:15;102157.63;;;11.25;100.00
16481;BME280;44634;54.110;12.138;2023-04-07T09:27:53;102163.22;;;10.57;100.00
16481;BME280;44634;54.110;12.138;2023-04-07T09:30:23;102160.13;;;10.24;100.00
16481;BME280;44634;54.110;12.138;2023-04-07T09:32:52;102162.75;;;10.51;100.00
16481;BME280;44634;54.110;12.138;2023-04-07T09:35:20;102150.41;;;10.64;100.00
16481;BME280;44634;54.110;12.138;2023-04-07T09:38:03;102145.72;;;10.55;100.00
16481;BME280;44634;54.110;12.138;2023-04-07T09:40:31;102160.53;;;10.45;100.00
16481;BME280;44634;54.110;12.138;2023-04-07T09:43:00;102146.75;;;10.39;100.00
16481;BME280;44634;54.110;12.138;2023-04-07T09:45:30;102157.00;;;10.31;100.00
16481;BME280;44634;54.110;12.138;2023-04-07T09:48:06;102162.56;;;10.12;100.00
16481;BME280;44634;54.110;12.138;2023-04-07T09:50:35;102156.06;;;10.18;100.00
16481;BME280;44634;54.110;12.138;2023-04-07T09:53:03;102160.78;;;9.86;100.00
16481;BME280;44634;54.110;12.138;2023-04-07T09:55:32;102152.38;;;10.21;100.00
16481;BME280;44634;54.110;12.138;2023-04-07T09:58:01;102151.13;;;10.26;100.00
16481;BME280;44634;54.110;12.138;2023-04-07T10:00:34;102158.91;;;10.15;100.00
16481;BME280;44634;54.110;12.138;2023-04-07T10:03:02;102159.50;;;10.06;100.00
16481;BME280;44634;54.110;12.138;2023-04-07T10:05:31;102152.50;;;9.78;100.00
16481;BME280;44634;54.110;12.138;2023-04-07T10:08:01;102148.47;;;10.53;100.00
16481;BME280;44634;54.110;12.138;2023-04-07T10:10:29;102150.88;;;10.17;100.00
16481;BME280;44634;54.110;12.138;2023-04-07T10:12:58;102152.72;;;9.61;100.00
16481;BME280;44634;54.110;12.138;2023-04-07T10:15:26;102143.22;;;9.99;100.00
16481;BME280;44634;54.110;12.138;2023-04-07T10:17:55;102148.47;;;9.58;100.00
16481;BME280;44634;54.110;12.138;2023-04-07T10:20:23;102147.00;;;8.97;100.00
16481;BME280;44634;54.110;12.138;2023-04-07T10:22:54;102140.34;;;9.75;100.00
16481;BME280;44634;54.110;12.138;2023-04-07T10:25:27;102145.91;;;9.98;100.00
16481;BME280;44634;54.110;12.138;2023-04-07T10:27:58;102149.72;;;9.38;100.00
16481;BME280;44634;54.110;12.138;2023-04-07T10:30:28;102157.44;;;9.56;100.00
16481;BME280;44634;54.110;12.138;2023-04-07T10:32:58;102147.78;;;9.69;100.00
16481;BME280;44634;54.110;12.138;2023-04-07T10:35:26;102148.81;;;9.80;100.00
16481;BME280;44634;54.110;12.138;2023-04-07T10:38:11;102151.56;;;10.06;100.00
16481;BME280;44634;54.110;12.138;2023-04-07T10:40:41;102146.34;;;9.92;100.00
16481;BME280;44634;54.110;12.138;2023-04-07T10:43:09;102142.53;;;9.54;100.00
16481;BME280;44634;54.110;12.138;2023-04-07T10:45:56;102142.34;;;9.72;100.00
16481;BME280;44634;54.110;12.138;2023-04-07T10:48:27;102126.63;;;9.56;100.00
16481;BME280;44634;54.110;12.138;2023-04-07T10:51:11;102123.91;;;9.15;100.00
16481;BME280;44634;54.110;12.138;2023-04-07T10:57:08;102118.31;;;9.34;100.00
16481;BME280;44634;54.110;12.138;2023-04-07T11:00:12;102115.66;;;8.77;100.00
16481;BME280;44634;54.110;12.138;2023-04-07T11:02:33;102102.97;;;8.83;100.00
16481;BME280;44634;54.110;12.138;2023-04-07T11:05:03;102104.59;;;9.14;100.00
16481;BME280;44634;54.110;12.138;2023-04-07T11:07:45;102121.06;;;9.88;100.00
16481;BME280;44634;54.110;12.138;2023-04-07T11:10:14;102134.69;;;9.67;100.00
16481;BME280;44634;54.110;12.138;2023-04-07T11:13:00;102115.78;;;9.18;100.00
16481;BME280;44634;54.110;12.138;2023-04-07T11:15:28;102122.66;;;9.06;100.00
16481;BME280;44634;54.110;12.138;2023-04-07T11:18:13;102120.00;;;9.49;100.00
16481;BME280;44634;54.110;12.138;2023-04-07T11:20:47;102100.34;;;9.26;100.00
16481;BME280;44634;54.110;12.138;2023-04-07T11:23:16;102116.41;;;8.79;100.00
16481;BME280;44634;54.110;12.138;2023-04-07T11:25:46;102114.06;;;9.45;100.00
16481;BME280;44634;54.110;12.138;2023-04-07T11:28:14;102114.47;;;9.11;100.00
16481;BME280;44634;54.110;12.138;2023-04-07T11:30:47;102113.34;;;9.15;100.00
16481;BME280;44634;54.110;12.138;2023-04-07T11:33:18;102103.53;;;8.74;100.00
16481;BME280;44634;54.110;12.138;2023-04-07T11:35:49;102106.47;;;9.12;100.00
16481;BME280;44634;54.110;12.138;2023-04-07T11:38:18;102114.53;;;9.38;100.00
16481;BME280;44634;54.110;12.138;2023-04-07T11:40:46;102116.31;;;8.80;100.00
16481;BME280;44634;54.110;12.138;2023-04-07T11:43:16;102104.94;;;8.80;100.00
16481;BME280;44634;54.110;12.138;2023-04-07T11:45:44;102101.09;;;9.00;100.00
16481;BME280;44634;54.110;12.138;2023-04-07T11:48:28;102097.97;;;9.36;100.00
16481;BME280;44634;54.110;12.138;2023-04-07T11:50:58;102096.66;;;9.00;100.00
16481;BME280;44634;54.110;12.138;2023-04-07T11:53:28;102100.81;;;9.18;100.00
16481;BME280;44634;54.110;12.138;2023-04-07T11:56:06;102100.41;;;9.10;100.00
16481;BME280;44634;54.110;12.138;2023-04-07T11:58:35;102092.59;;;9.09;100.00
16481;BME280;44634;54.110;12.138;2023-04-07T12:01:05;102080.31;;;8.65;100.00
16481;BME280;44634;54.110;12.138;2023-04-07T12:03:35;102060.13;;;8.35;100.00
16481;BME280;44634;54.110;12.138;2023-04-07T12:06:05;102054.16;;;9.05;100.00
16481;BME280;44634;54.110;12.138;2023-04-07T12:08:37;102033.81;;;8.78;100.00
16481;BME280;44634;54.110;12.138;2023-04-07T12:11:05;102045.81;;;8.98;100.00
16481;BME280;44634;54.110;12.138;2023-04-07T12:13:33;102033.91;;;8.91;100.00
16481;BME280;44634;54.110;12.138;2023-04-07T12:16:01;102010.09;;;8.78;100.00
16481;BME280;44634;54.110;12.138;2023-04-07T12:18:29;102010.66;;;8.98;100.00
16481;BME280;44634;54.110;12.138;2023-04-07T12:20:57;101998.22;;;9.00;100.00
16481;BME280;44634;54.110;12.138;2023-04-07T12:23:26;102013.94;;;8.44;100.00
16481;BME280;44634;54.110;12.138;2023-04-07T12:25:54;102008.19;;;8.38;100.00
16481;BME280;44634;54.110;12.138;2023-04-07T12:28:22;101997.75;;;8.79;100.00
16481;BME280;44634;54.110;12.138;2023-04-07T12:30:49;101990.31;;;9.00;100.00
16481;BME280;44634;54.110;12.138;2023-04-07T12:33:17;101992.22;;;8.69;100.00
16481;BME280;44634;54.110;12.138;2023-04-07T12:35:45;101982.31;;;8.73;100.00
16481;BME280;44634;54.110;12.138;2023-04-07T12:38:13;101959.59;;;8.27;100.00
16481;BME280;44634;54.110;12.138;2023-04-07T12:40:42;101946.72;;;8.65;100.00
16481;BME280;44634;54.110;12.138;2023-04-07T12:43:10;101928.16;;;8.67;100.00
16481;BME280;44634;54.110;12.138;2023-04-07T12:45:38;101936.97;;;8.39;100.00
16481;BME280;44634;54.110;12.138;2023-04-07T12:48:06;101964.81;;;8.72;100.00
16481;BME280;44634;54.110;12.138;2023-04-07T12:50:34;101929.34;;;9.31;100.00
16481;BME280;44634;54.110;12.138;2023-04-07T12:53:02;101963.34;;;9.36;100.00